Time;durP1;ratioP1;P1;durP2;ratioP2;P2;SDS_P1;SDS_P2;PMS_P1;PMS_P2;Temp;Humidity;BMP_temperature;BMP_pressure;BME280_temperature;BME280_humidity;BME280_pressure;Samples;Min_cycle;Max_cycle;Signal;HPM_P1;HPM_P2
2020/12/13 00:01:40;;;;;;;;;;;4.80;99.90;;;;;;5092337;28;20379;-72
2020/12/13 00:04:07;;;;;;;;;;;4.80;99.90;;;;;;5105830;28;19924;-72
2020/12/13 00:06:34;;;;;;;;;;;4.90;99.90;;;;;;5096559;28;19924;-72
2020/12/13 00:09:03;;;;;;;;;;;4.90;99.90;;;;;;5108393;28;19924;-72
2020/12/13 00:11:29;;;;;;;;;;;4.80;99.90;;;;;;5107744;28;19928;-72
2020/12/13 00:13:56;;;;;;;;;;;4.80;99.90;;;;;;5111548;28;19924;-72
2020/12/13 00:16:22;;;;;;;;;;;4.80;99.90;;;;;;5106809;28;19966;-73
2020/12/13 00:18:48;;;;;;;;;;;4.80;99.90;;;;;;5104044;28;19935;-73
2020/12/13 00:21:15;;;;;;;;;;;4.80;99.90;;;;;;5114280;28;19951;-73
2020/12/13 00:23:42;;;;;;;;;;;4.80;99.90;;;;;;5114436;28;19951;-73
2020/12/13 00:26:09;;;;;;;;;;;4.80;99.90;;;;;;5106732;28;19938;-73
2020/12/13 00:28:36;;;;;;;;;;;4.80;99.90;;;;;;5096562;28;20490;-72
2020/12/13 00:31:02;;;;;;;;;;;4.80;99.90;;;;;;5105588;28;20368;-72
2020/12/13 00:33:29;;;;;;;;;;;4.80;99.90;;;;;;5114063;28;19927;-73
2020/12/13 00:35:55;;;;;;;;;;;4.90;99.90;;;;;;5109406;28;20380;-73
2020/12/13 00:38:22;;;;;;;;;;;4.90;99.90;;;;;;5113961;28;19928;-72
2020/12/13 00:40:50;;;;;;;;;;;4.90;99.90;;;;;;5111583;28;19946;-72
2020/12/13 00:43:17;;;;;;;;;;;4.90;99.90;;;;;;5112102;28;19997;-73
2020/12/13 00:45:43;;;;;;;;;;;4.90;99.90;;;;;;5087468;28;19930;-72
2020/12/13 00:48:10;;;;;;;;;;;4.90;99.90;;;;;;5104615;28;19936;-73
2020/12/13 00:50:37;;;;;;;;;;;4.90;99.90;;;;;;5098220;27;19923;-72
2020/12/13 00:53:05;;;;;;;;;;;4.80;99.90;;;;;;5074991;28;19931;-72
2020/12/13 00:55:31;;;;;;;;;;;4.80;99.90;;;;;;5099019;27;19930;-73
2020/12/13 00:57:58;;;;;;;;;;;4.90;99.90;;;;;;5083610;28;19930;-72
2020/12/13 01:00:25;;;;;;;;;;;4.90;99.90;;;;;;5108959;28;20034;-72
2020/12/13 01:02:52;;;;;;;;;;;4.90;99.90;;;;;;5104745;28;19928;-72
2020/12/13 01:05:19;;;;;;;;;;;4.90;99.90;;;;;;5093682;28;19924;-72
2020/12/13 01:07:45;;;;;;;;;;;4.90;99.90;;;;;;5092953;27;20350;-72
2020/12/13 01:10:11;;;;;;;;;;;4.90;99.90;;;;;;5103628;28;20388;-72
2020/12/13 01:12:41;;;;;;;;;;;5.00;99.90;;;;;;5102476;28;19963;-73
2020/12/13 01:15:07;;;;;;;;;;;4.90;99.90;;;;;;5107302;28;19930;-72
2020/12/13 01:17:35;;;;;;;;;;;4.90;99.90;;;;;;5091774;28;19969;-72
2020/12/13 01:20:01;;;;;;;;;;;4.90;99.90;;;;;;5109206;28;19937;-72
2020/12/13 01:22:27;;;;;;;;;;;4.90;99.90;;;;;;5107197;28;19932;-73
2020/12/13 01:24:54;;;;;;;;;;;4.90;99.90;;;;;;5113045;28;20022;-73
2020/12/13 01:27:20;;;;;;;;;;;4.90;99.90;;;;;;5108480;28;19932;-72
2020/12/13 01:29:46;;;;;;;;;;;5.00;99.90;;;;;;5101355;28;19928;-72
2020/12/13 01:32:13;;;;;;;;;;;5.10;99.90;;;;;;5109577;28;19928;-72
2020/12/13 01:34:40;;;;;;;;;;;5.10;99.90;;;;;;5100164;28;19930;-73
2020/12/13 01:37:06;;;;;;;;;;;5.10;99.90;;;;;;5101593;28;20376;-72
2020/12/13 01:39:33;;;;;;;;;;;5.10;99.90;;;;;;5097223;28;20445;-73
2020/12/13 01:41:59;;;;;;;;;;;5.10;99.90;;;;;;5110372;28;19924;-72
2020/12/13 01:44:29;;;;;;;;;;;5.10;99.90;;;;;;5108418;28;19923;-72
2020/12/13 01:46:56;;;;;;;;;;;5.20;99.90;;;;;;5094475;28;19997;-73
2020/12/13 01:49:22;;;;;;;;;;;5.10;99.90;;;;;;5098270;27;19924;-72
2020/12/13 01:51:55;;;;;;;;;;;5.00;99.90;;;;;;5102127;28;20023;-72
2020/12/13 01:54:22;;;;;;;;;;;5.00;99.90;;;;;;5110754;28;19931;-72
2020/12/13 01:56:49;;;;;;;;;;;5.00;99.90;;;;;;5112868;28;19924;-73
2020/12/13 01:59:16;;;;;;;;;;;5.00;99.90;;;;;;5093626;28;19919;-73
2020/12/13 02:01:44;;;;;;;;;;;5.00;99.90;;;;;;5101866;28;19977;-72
2020/12/13 02:04:11;;;;;;;;;;;5.00;99.90;;;;;;5108569;28;19923;-72
2020/12/13 02:06:38;;;;;;;;;;;5.00;99.90;;;;;;5105731;28;20019;-72
2020/12/13 02:09:05;;;;;;;;;;;4.90;99.90;;;;;;5109043;28;19923;-72
2020/12/13 02:11:32;;;;;;;;;;;5.00;99.90;;;;;;5112757;28;19934;-72
2020/12/13 02:13:58;;;;;;;;;;;5.00;99.90;;;;;;5108532;28;19924;-72
2020/12/13 02:16:25;;;;;;;;;;;5.00;99.90;;;;;;5107095;28;19928;-72
2020/12/13 02:18:51;;;;;;;;;;;5.00;99.90;;;;;;5106015;28;19934;-72
2020/12/13 02:21:18;;;;;;;;;;;4.90;99.90;;;;;;5111264;28;20384;-73
2020/12/13 02:23:45;;;;;;;;;;;5.00;99.90;;;;;;5093014;28;20016;-72
2020/12/13 02:26:11;;;;;;;;;;;4.90;99.90;;;;;;5097181;28;20022;-72
2020/12/13 02:28:38;;;;;;;;;;;5.00;99.90;;;;;;5098888;28;19923;-75
2020/12/13 02:31:05;;;;;;;;;;;5.00;99.90;;;;;;5107186;28;19923;-72
2020/12/13 02:33:32;;;;;;;;;;;4.90;99.90;;;;;;5095053;28;20312;-72
2020/12/13 02:35:58;;;;;;;;;;;4.90;99.90;;;;;;5096436;28;20430;-72
2020/12/13 02:38:25;;;;;;;;;;;5.00;99.90;;;;;;5097506;28;19931;-72
2020/12/13 02:40:53;;;;;;;;;;;5.00;99.90;;;;;;5107773;28;19927;-71
2020/12/13 02:43:19;;;;;;;;;;;4.90;99.90;;;;;;5110855;28;19934;-72
2020/12/13 02:45:45;;;;;;;;;;;4.90;99.90;;;;;;5108390;28;19928;-72
2020/12/13 02:48:12;;;;;;;;;;;4.90;99.90;;;;;;5095026;28;19943;-72
2020/12/13 02:50:38;;;;;;;;;;;5.00;99.90;;;;;;5103748;28;19931;-71
2020/12/13 02:53:05;;;;;;;;;;;4.90;99.90;;;;;;5111543;28;19924;-73
2020/12/13 02:55:31;;;;;;;;;;;4.90;99.90;;;;;;5103038;28;19936;-72
2020/12/13 02:57:59;;;;;;;;;;;5.00;99.90;;;;;;5092994;28;19924;-72
2020/12/13 03:00:26;;;;;;;;;;;4.90;99.90;;;;;;5103444;28;19928;-72
2020/12/13 03:02:52;;;;;;;;;;;5.00;99.90;;;;;;5105329;28;19924;-72
2020/12/13 03:05:19;;;;;;;;;;;5.00;99.90;;;;;;5094872;28;19924;-72
2020/12/13 03:07:45;;;;;;;;;;;5.00;99.90;;;;;;5107077;28;19966;-72
2020/12/13 03:10:11;;;;;;;;;;;5.00;99.90;;;;;;5097645;28;19940;-73
2020/12/13 03:12:37;;;;;;;;;;;5.00;99.90;;;;;;5109172;28;19924;-72
2020/12/13 03:15:05;;;;;;;;;;;5.00;99.90;;;;;;5108855;28;20015;-72
2020/12/13 03:17:31;;;;;;;;;;;5.00;99.90;;;;;;5107877;28;19934;-72
2020/12/13 03:19:57;;;;;;;;;;;5.00;99.90;;;;;;5110884;28;20029;-73
2020/12/13 03:22:23;;;;;;;;;;;5.10;99.90;;;;;;5108686;28;20314;-72
2020/12/13 03:24:50;;;;;;;;;;;5.10;99.90;;;;;;5111121;28;19931;-71
2020/12/13 03:27:16;;;;;;;;;;;5.10;99.90;;;;;;5108476;28;19928;-72
2020/12/13 03:29:45;;;;;;;;;;;5.10;99.90;;;;;;5104904;28;19924;-72
2020/12/13 03:32:12;;;;;;;;;;;5.10;99.90;;;;;;5107539;28;19927;-72
2020/12/13 03:34:39;;;;;;;;;;;5.00;99.90;;;;;;5110008;28;19935;-72
2020/12/13 03:37:05;;;;;;;;;;;5.00;99.90;;;;;;5099807;28;19963;-72
2020/12/13 03:39:31;;;;;;;;;;;5.00;99.90;;;;;;5100037;28;19928;-72
2020/12/13 03:41:57;;;;;;;;;;;5.00;99.90;;;;;;5107936;28;20030;-72
2020/12/13 03:44:24;;;;;;;;;;;5.10;99.90;;;;;;5108311;28;20015;-72
2020/12/13 03:46:50;;;;;;;;;;;5.10;99.90;;;;;;5112935;28;19967;-71
2020/12/13 03:49:17;;;;;;;;;;;5.10;99.90;;;;;;5107404;28;20015;-73
2020/12/13 03:51:44;;;;;;;;;;;5.20;99.90;;;;;;5100794;28;19931;-72
2020/12/13 03:54:10;;;;;;;;;;;5.30;99.90;;;;;;5110801;28;19935;-71
2020/12/13 03:56:36;;;;;;;;;;;5.20;99.90;;;;;;5106248;27;19931;-71
2020/12/13 03:59:03;;;;;;;;;;;5.20;99.90;;;;;;5099935;28;19924;-72
2020/12/13 04:01:29;;;;;;;;;;;5.10;99.90;;;;;;5107485;28;19928;-72
2020/12/13 04:03:55;;;;;;;;;;;5.10;99.90;;;;;;5112148;28;19931;-77
2020/12/13 04:06:22;;;;;;;;;;;5.10;99.90;;;;;;5110004;28;19967;-72
2020/12/13 04:08:49;;;;;;;;;;;5.10;99.90;;;;;;5104517;28;20393;-72
2020/12/13 04:11:15;;;;;;;;;;;5.10;99.90;;;;;;5113243;28;20364;-71
2020/12/13 04:13:41;;;;;;;;;;;5.10;99.90;;;;;;5111779;28;19934;-71
2020/12/13 04:16:11;;;;;;;;;;;5.10;99.90;;;;;;5102696;28;19956;-71
2020/12/13 04:18:37;;;;;;;;;;;5.10;99.90;;;;;;5111685;28;19927;-71
2020/12/13 04:21:04;;;;;;;;;;;5.10;99.90;;;;;;5104661;28;19935;-71
2020/12/13 04:23:31;;;;;;;;;;;5.10;99.90;;;;;;5111420;28;19946;-72
2020/12/13 04:25:57;;;;;;;;;;;5.20;99.90;;;;;;5108584;28;20292;-72
2020/12/13 04:28:24;;;;;;;;;;;5.20;99.90;;;;;;5108408;28;19956;-72
2020/12/13 04:30:50;;;;;;;;;;;5.20;99.90;;;;;;5105735;28;19931;-71
2020/12/13 04:33:16;;;;;;;;;;;5.20;99.90;;;;;;5103052;28;19934;-72
2020/12/13 04:35:43;;;;;;;;;;;5.20;99.90;;;;;;5096983;28;19957;-72
2020/12/13 04:38:09;;;;;;;;;;;5.20;99.90;;;;;;5112913;28;19928;-72
2020/12/13 04:40:36;;;;;;;;;;;5.20;99.90;;;;;;5110937;28;19992;-72
2020/12/13 04:43:03;;;;;;;;;;;5.20;99.90;;;;;;5111578;28;20349;-71
2020/12/13 04:45:29;;;;;;;;;;;5.30;99.90;;;;;;5104506;28;20342;-72
2020/12/13 04:48:02;;;;;;;;;;;5.20;99.90;;;;;;5105594;28;20020;-72
2020/12/13 04:50:30;;;;;;;;;;;5.20;99.90;;;;;;5098769;28;19924;-71
2020/12/13 04:52:57;;;;;;;;;;;5.30;99.90;;;;;;5093131;28;19924;-74
2020/12/13 04:55:23;;;;;;;;;;;5.30;99.90;;;;;;5104080;28;19927;-72
2020/12/13 04:57:50;;;;;;;;;;;5.30;99.90;;;;;;5114121;28;19931;-72
2020/12/13 05:00:17;;;;;;;;;;;5.20;99.90;;;;;;5106833;28;19931;-72
2020/12/13 05:02:44;;;;;;;;;;;5.30;99.90;;;;;;5107333;28;19924;-72
2020/12/13 05:05:10;;;;;;;;;;;5.30;99.90;;;;;;5109464;28;19930;-71
2020/12/13 05:07:36;;;;;;;;;;;5.50;99.90;;;;;;5113667;28;19955;-72
2020/12/13 05:10:03;;;;;;;;;;;5.60;99.90;;;;;;5106735;28;19931;-72
2020/12/13 05:12:30;;;;;;;;;;;5.50;99.90;;;;;;5110239;28;20181;-72
2020/12/13 05:14:57;;;;;;;;;;;5.50;99.90;;;;;;5099265;28;19931;-72
2020/12/13 05:17:24;;;;;;;;;;;5.50;99.90;;;;;;5109213;28;19927;-72
2020/12/13 05:19:51;;;;;;;;;;;5.50;99.90;;;;;;5106730;28;19963;-71
2020/12/13 05:22:20;;;;;;;;;;;5.50;99.90;;;;;;5112578;28;19931;-72
2020/12/13 05:24:47;;;;;;;;;;;5.50;99.90;;;;;;5096534;28;19924;-72
2020/12/13 05:27:13;;;;;;;;;;;5.40;99.90;;;;;;5105611;28;19930;-71
2020/12/13 05:29:44;;;;;;;;;;;5.30;99.90;;;;;;5105962;28;19938;-71
2020/12/13 05:32:12;;;;;;;;;;;5.20;99.90;;;;;;5110019;28;19924;-72
2020/12/13 05:34:40;;;;;;;;;;;5.20;99.90;;;;;;5104139;28;19974;-72
2020/12/13 05:37:07;;;;;;;;;;;5.20;99.90;;;;;;5109624;28;19931;-71
2020/12/13 05:39:36;;;;;;;;;;;5.20;99.90;;;;;;5111664;28;19931;-72
2020/12/13 05:42:03;;;;;;;;;;;5.10;99.90;;;;;;5098032;28;19928;-72
2020/12/13 05:44:48;;;;;;;;;;;5.10;99.90;;;;;;5111789;28;19930;-72
2020/12/13 05:47:21;;;;;;;;;;;5.00;99.90;;;;;;5109531;28;19924;-72
2020/12/13 05:50:10;;;;;;;;;;;5.10;99.90;;;;;;5112875;28;20361;-72
2020/12/13 05:52:41;;;;;;;;;;;5.20;99.90;;;;;;5104152;28;19934;-72
2020/12/13 05:55:08;;;;;;;;;;;5.10;99.90;;;;;;5102574;28;19934;-72
2020/12/13 05:57:35;;;;;;;;;;;5.10;99.90;;;;;;5109552;28;19930;-72
2020/12/13 06:00:01;;;;;;;;;;;5.10;99.90;;;;;;5093876;28;19986;-75
2020/12/13 06:02:29;;;;;;;;;;;5.10;99.90;;;;;;5093383;28;20022;-71
2020/12/13 06:05:01;;;;;;;;;;;5.10;99.90;;;;;;5106458;28;19928;-71
2020/12/13 06:07:30;;;;;;;;;;;5.20;99.90;;;;;;5101572;28;20023;-75
2020/12/13 06:10:02;;;;;;;;;;;5.10;99.90;;;;;;5111065;28;19931;-72
2020/12/13 06:12:29;;;;;;;;;;;5.10;99.90;;;;;;5090831;28;19931;-72
2020/12/13 06:14:58;;;;;;;;;;;5.10;99.90;;;;;;5110186;27;19977;-75
2020/12/13 06:17:25;;;;;;;;;;;5.10;99.90;;;;;;5113032;28;19955;-72
2020/12/13 06:19:53;;;;;;;;;;;5.10;99.90;;;;;;5101060;28;20296;-72
2020/12/13 06:22:20;;;;;;;;;;;5.10;99.90;;;;;;5108438;28;20534;-72
2020/12/13 06:24:47;;;;;;;;;;;5.10;99.90;;;;;;5105967;28;19931;-72
2020/12/13 06:27:13;;;;;;;;;;;5.10;99.90;;;;;;5098677;28;20328;-72
2020/12/13 06:29:42;;;;;;;;;;;5.10;99.90;;;;;;5100988;28;19967;-72
2020/12/13 06:32:09;;;;;;;;;;;5.10;99.90;;;;;;5102566;28;19935;-71
2020/12/13 06:34:35;;;;;;;;;;;5.20;99.90;;;;;;5106458;28;19924;-72
2020/12/13 06:37:04;;;;;;;;;;;5.20;99.90;;;;;;5110064;28;21431;-72
2020/12/13 06:39:31;;;;;;;;;;;5.20;99.90;;;;;;5108592;28;19923;-71
2020/12/13 06:42:02;;;;;;;;;;;5.10;99.90;;;;;;5105838;28;19931;-72
2020/12/13 06:44:29;;;;;;;;;;;5.30;99.90;;;;;;5106312;28;19928;-71
2020/12/13 06:46:55;;;;;;;;;;;5.40;99.90;;;;;;5107703;28;20046;-73
2020/12/13 06:49:22;;;;;;;;;;;5.50;99.90;;;;;;5105805;28;20007;-71
2020/12/13 06:51:48;;;;;;;;;;;5.50;99.90;;;;;;5112096;28;19928;-71
2020/12/13 06:54:17;;;;;;;;;;;5.50;99.90;;;;;;5100182;28;19923;-71
2020/12/13 06:56:43;;;;;;;;;;;5.40;99.90;;;;;;5110529;28;20283;-71
2020/12/13 06:59:10;;;;;;;;;;;5.50;99.90;;;;;;5103823;28;19963;-76
2020/12/13 07:01:39;;;;;;;;;;;5.50;99.90;;;;;;5098949;28;20026;-72
2020/12/13 07:04:24;;;;;;;;;;;5.50;99.90;;;;;;5108310;28;20261;-71
2020/12/13 07:06:56;;;;;;;;;;;5.50;99.90;;;;;;5092142;28;20357;-72
2020/12/13 07:09:23;;;;;;;;;;;5.40;99.90;;;;;;5111248;28;20316;-72
2020/12/13 07:11:50;;;;;;;;;;;5.30;99.90;;;;;;5107748;28;20296;-72
2020/12/13 07:14:17;;;;;;;;;;;5.20;99.90;;;;;;5102821;28;19956;-72
2020/12/13 07:16:45;;;;;;;;;;;5.20;99.90;;;;;;5105964;28;19928;-71
2020/12/13 07:19:13;;;;;;;;;;;5.20;99.90;;;;;;5109362;28;19969;-72
2020/12/13 07:21:40;;;;;;;;;;;5.20;99.90;;;;;;5113173;28;19928;-72
2020/12/13 07:24:07;;;;;;;;;;;5.20;99.90;;;;;;5114028;28;19963;-71
2020/12/13 07:26:36;;;;;;;;;;;5.10;99.90;;;;;;5112514;28;19980;-73
2020/12/13 07:29:03;;;;;;;;;;;5.20;99.90;;;;;;5113422;28;19932;-72
2020/12/13 07:31:35;;;;;;;;;;;5.20;99.90;;;;;;5112835;28;19927;-72
2020/12/13 07:34:02;;;;;;;;;;;5.20;99.90;;;;;;5114025;27;19960;-72
2020/12/13 07:36:29;;;;;;;;;;;5.10;99.90;;;;;;5108884;28;19965;-71
2020/12/13 07:38:55;;;;;;;;;;;5.10;99.90;;;;;;5094942;28;19959;-72
2020/12/13 07:41:22;;;;;;;;;;;5.10;99.90;;;;;;5111304;28;19945;-72
2020/12/13 07:43:56;;;;;;;;;;;5.20;99.90;;;;;;5114444;28;19935;-72
2020/12/13 07:46:23;;;;;;;;;;;5.30;99.90;;;;;;5104474;28;19967;-72
2020/12/13 07:48:59;;;;;;;;;;;5.30;99.90;;;;;;5107068;28;19928;-71
2020/12/13 07:51:25;;;;;;;;;;;5.20;99.90;;;;;;5096798;28;22065;-72
2020/12/13 07:53:51;;;;;;;;;;;5.20;99.90;;;;;;5113768;28;19958;-71
2020/12/13 07:56:22;;;;;;;;;;;5.30;99.90;;;;;;5106319;28;19930;-72
2020/12/13 07:58:49;;;;;;;;;;;5.30;99.90;;;;;;5102103;28;19946;-71
2020/12/13 08:01:16;;;;;;;;;;;5.20;99.90;;;;;;5113034;28;19926;-72
2020/12/13 08:03:43;;;;;;;;;;;5.30;99.90;;;;;;5110580;28;19950;-71
2020/12/13 08:06:10;;;;;;;;;;;5.20;99.90;;;;;;5106281;28;19933;-71
2020/12/13 08:08:43;;;;;;;;;;;5.30;99.90;;;;;;5107133;28;20369;-76
2020/12/13 08:11:13;;;;;;;;;;;5.20;99.90;;;;;;5097263;28;19931;-71
2020/12/13 08:13:49;;;;;;;;;;;5.30;99.90;;;;;;5108096;28;19984;-71
2020/12/13 08:16:17;;;;;;;;;;;5.30;99.90;;;;;;5114973;28;19962;-71
2020/12/13 08:18:44;;;;;;;;;;;5.30;99.90;;;;;;5111142;28;19928;-71
2020/12/13 08:21:12;;;;;;;;;;;5.40;99.90;;;;;;5117393;28;19923;-71
2020/12/13 08:23:39;;;;;;;;;;;5.40;99.90;;;;;;5109124;28;19963;-71
2020/12/13 08:26:06;;;;;;;;;;;5.50;99.90;;;;;;5098644;28;20026;-71
2020/12/13 08:28:32;;;;;;;;;;;5.60;99.90;;;;;;5093428;28;19924;-70
2020/12/13 08:30:59;;;;;;;;;;;5.60;99.90;;;;;;5096818;28;19924;-70
2020/12/13 08:33:27;;;;;;;;;;;5.70;99.90;;;;;;5098598;28;19923;-71
2020/12/13 08:35:54;;;;;;;;;;;5.80;99.90;;;;;;5102942;28;19934;-75
2020/12/13 08:38:23;;;;;;;;;;;5.80;99.90;;;;;;5100721;28;19971;-70
2020/12/13 08:40:51;;;;;;;;;;;5.90;99.90;;;;;;5100548;28;19924;-71
2020/12/13 08:43:19;;;;;;;;;;;6.00;99.90;;;;;;5100631;28;19940;-70
2020/12/13 08:45:51;;;;;;;;;;;6.00;99.90;;;;;;5114721;28;20054;-70
2020/12/13 08:48:23;;;;;;;;;;;6.00;99.90;;;;;;5112605;28;20007;-77
2020/12/13 08:51:02;;;;;;;;;;;5.90;99.90;;;;;;5094954;28;19963;-70
2020/12/13 08:53:29;;;;;;;;;;;5.90;99.90;;;;;;5093196;28;19924;-71
2020/12/13 08:55:59;;;;;;;;;;;5.90;99.90;;;;;;5108534;28;19925;-70
2020/12/13 08:58:25;;;;;;;;;;;6.00;99.90;;;;;;5095480;28;20015;-70
2020/12/13 09:00:52;;;;;;;;;;;6.00;99.90;;;;;;5101656;28;19924;-70
2020/12/13 09:03:27;;;;;;;;;;;6.00;99.90;;;;;;5113285;28;19930;-70
2020/12/13 09:05:55;;;;;;;;;;;6.10;99.90;;;;;;5099688;28;20010;-76
2020/12/13 09:08:22;;;;;;;;;;;6.10;99.90;;;;;;5098720;28;19927;-70
2020/12/13 09:10:49;;;;;;;;;;;6.20;99.90;;;;;;5101053;28;19931;-69
2020/12/13 09:13:15;;;;;;;;;;;6.20;99.90;;;;;;5099508;28;20277;-70
2020/12/13 09:15:42;;;;;;;;;;;6.10;99.90;;;;;;5104560;28;20335;-71
2020/12/13 09:18:10;;;;;;;;;;;6.20;99.90;;;;;;5111811;28;19924;-70
2020/12/13 09:20:37;;;;;;;;;;;6.50;99.90;;;;;;5108686;28;20014;-71
2020/12/13 09:23:05;;;;;;;;;;;6.50;99.90;;;;;;5096486;28;19958;-71
2020/12/13 09:25:35;;;;;;;;;;;6.50;99.90;;;;;;5099061;28;19975;-71
2020/12/13 09:28:02;;;;;;;;;;;6.60;99.90;;;;;;5099196;28;19985;-71
2020/12/13 09:30:28;;;;;;;;;;;6.70;99.90;;;;;;5110647;28;19924;-71
2020/12/13 09:32:55;;;;;;;;;;;6.80;99.90;;;;;;5111451;28;19923;-72
2020/12/13 09:35:21;;;;;;;;;;;6.70;99.90;;;;;;5095479;28;19920;-71
2020/12/13 09:37:48;;;;;;;;;;;6.70;99.90;;;;;;5113426;28;20297;-73
2020/12/13 09:40:15;;;;;;;;;;;6.70;99.90;;;;;;5103422;28;20235;-70
2020/12/13 09:42:41;;;;;;;;;;;6.70;99.90;;;;;;5110546;28;19958;-72
2020/12/13 09:45:08;;;;;;;;;;;6.60;99.90;;;;;;5107430;28;20332;-74
2020/12/13 09:47:34;;;;;;;;;;;6.60;99.90;;;;;;5108043;28;19924;-72
2020/12/13 09:50:00;;;;;;;;;;;6.70;99.90;;;;;;5113046;27;19924;-72
2020/12/13 09:52:27;;;;;;;;;;;6.70;99.90;;;;;;5105943;28;19924;-72
2020/12/13 09:54:54;;;;;;;;;;;6.70;99.90;;;;;;5094550;28;19953;-76
2020/12/13 09:57:21;;;;;;;;;;;6.70;99.90;;;;;;5109014;28;19965;-73
2020/12/13 09:59:48;;;;;;;;;;;6.70;99.90;;;;;;5112844;28;19954;-72
2020/12/13 10:02:14;;;;;;;;;;;6.70;99.90;;;;;;5106123;28;19924;-73
2020/12/13 10:04:40;;;;;;;;;;;6.80;99.90;;;;;;5111856;28;20369;-72
2020/12/13 10:07:27;;;;;;;;;;;6.90;99.90;;;;;;5098704;28;21450;-72
2020/12/13 10:09:53;;;;;;;;;;;6.90;99.90;;;;;;5102640;28;19924;-76
2020/12/13 10:12:21;;;;;;;;;;;7.10;99.90;;;;;;5102744;28;20026;-71
2020/12/13 10:14:48;;;;;;;;;;;7.10;99.90;;;;;;5105223;28;19930;-71
2020/12/13 10:17:15;;;;;;;;;;;7.10;99.90;;;;;;5103899;28;19924;-72
2020/12/13 10:19:41;;;;;;;;;;;7.10;99.90;;;;;;5113054;28;19928;-72
2020/12/13 10:22:07;;;;;;;;;;;7.20;99.90;;;;;;5101691;28;19927;-71
2020/12/13 10:24:33;;;;;;;;;;;7.30;99.90;;;;;;5110308;28;20279;-72
2020/12/13 10:27:00;;;;;;;;;;;7.20;99.90;;;;;;5092056;28;19925;-71
2020/12/13 10:29:26;;;;;;;;;;;7.20;99.90;;;;;;5104829;28;19966;-73
2020/12/13 10:31:53;;;;;;;;;;;7.30;99.90;;;;;;5111320;28;19928;-70
2020/12/13 10:34:20;;;;;;;;;;;7.50;99.90;;;;;;5109158;28;19928;-70
2020/12/13 10:36:48;;;;;;;;;;;7.70;99.90;;;;;;5112448;28;19930;-71
2020/12/13 10:39:19;;;;;;;;;;;7.80;99.90;;;;;;5109082;28;20596;-69
2020/12/13 10:41:45;;;;;;;;;;;7.80;99.90;;;;;;5112456;28;19928;-70
2020/12/13 10:44:14;;;;;;;;;;;7.90;99.90;;;;;;5109629;28;20002;-71
2020/12/13 10:46:40;;;;;;;;;;;7.80;99.90;;;;;;5105501;28;19930;-70
2020/12/13 10:49:08;;;;;;;;;;;7.80;99.90;;;;;;5105724;28;20376;-70
2020/12/13 10:51:34;;;;;;;;;;;7.90;99.90;;;;;;5111629;27;19959;-71
2020/12/13 10:54:01;;;;;;;;;;;7.80;99.90;;;;;;5109257;28;19924;-69
2020/12/13 10:56:27;;;;;;;;;;;7.70;99.90;;;;;;5112423;28;20022;-69
2020/12/13 10:58:54;;;;;;;;;;;7.90;99.90;;;;;;5109014;28;19988;-75
2020/12/13 11:01:20;;;;;;;;;;;7.80;99.90;;;;;;5112492;28;19920;-70
2020/12/13 11:03:46;;;;;;;;;;;7.80;99.90;;;;;;5109273;28;19928;-69
2020/12/13 11:06:13;;;;;;;;;;;7.80;99.90;;;;;;5111739;28;19947;-69
2020/12/13 11:08:40;;;;;;;;;;;7.80;99.90;;;;;;5111698;28;20326;-78
2020/12/13 11:11:07;;;;;;;;;;;7.90;99.90;;;;;;5110057;28;20023;-71
2020/12/13 11:13:33;;;;;;;;;;;8.00;99.90;;;;;;5112558;28;19927;-71
2020/12/13 11:16:00;;;;;;;;;;;8.00;99.90;;;;;;5101365;28;19966;-71
2020/12/13 11:18:30;;;;;;;;;;;8.00;99.90;;;;;;5103644;28;20007;-71
2020/12/13 11:20:57;;;;;;;;;;;8.00;99.90;;;;;;5108681;28;20427;-77
2020/12/13 11:23:24;;;;;;;;;;;8.00;99.90;;;;;;5113715;28;19930;-70
2020/12/13 11:25:50;;;;;;;;;;;8.10;99.90;;;;;;5109702;28;19924;-73
2020/12/13 11:28:17;;;;;;;;;;;8.20;99.90;;;;;;5112027;28;19924;-71
2020/12/13 11:30:43;;;;;;;;;;;8.30;99.90;;;;;;5109192;28;19928;-71
2020/12/13 11:33:09;;;;;;;;;;;8.30;99.90;;;;;;5111712;28;19931;-71
2020/12/13 11:35:36;;;;;;;;;;;8.50;99.90;;;;;;5108813;28;19924;-71
2020/12/13 11:38:02;;;;;;;;;;;8.60;99.90;;;;;;5093095;28;20372;-71
2020/12/13 11:40:29;;;;;;;;;;;8.70;99.90;;;;;;5105175;28;19924;-70
2020/12/13 11:42:56;;;;;;;;;;;8.70;99.90;;;;;;5100539;28;19969;-73
2020/12/13 11:45:22;;;;;;;;;;;8.70;99.90;;;;;;5105444;28;19927;-71
2020/12/13 11:47:49;;;;;;;;;;;8.70;99.90;;;;;;5107680;28;19928;-70
2020/12/13 11:50:16;;;;;;;;;;;8.70;99.90;;;;;;5092369;28;20408;-70
2020/12/13 11:52:42;;;;;;;;;;;8.60;99.90;;;;;;5110729;28;19945;-70
2020/12/13 11:55:08;;;;;;;;;;;8.50;99.90;;;;;;5101036;28;20272;-71
2020/12/13 11:57:36;;;;;;;;;;;8.50;99.90;;;;;;5109764;28;19924;-71
2020/12/13 12:00:03;;;;;;;;;;;8.40;99.90;;;;;;5097169;28;19924;-71
2020/12/13 12:02:40;;;;;;;;;;;8.40;99.90;;;;;;5100341;28;19924;-70
2020/12/13 12:05:06;;;;;;;;;;;8.30;99.90;;;;;;5094774;28;19924;-71
2020/12/13 12:07:33;;;;;;;;;;;8.40;99.90;;;;;;5105437;28;19928;-71
2020/12/13 12:09:59;;;;;;;;;;;8.40;99.90;;;;;;5111361;28;19924;-71
2020/12/13 12:12:25;;;;;;;;;;;8.30;99.90;;;;;;5104129;28;19972;-70
2020/12/13 12:14:53;;;;;;;;;;;8.30;99.90;;;;;;5105404;28;20341;-70
2020/12/13 12:17:19;;;;;;;;;;;8.30;99.90;;;;;;5113133;28;20282;-70
2020/12/13 12:19:46;;;;;;;;;;;8.40;99.90;;;;;;5115766;28;19928;-70
2020/12/13 12:22:12;;;;;;;;;;;8.40;99.90;;;;;;5106308;28;20436;-70
2020/12/13 12:24:38;;;;;;;;;;;8.50;99.90;;;;;;5105689;28;19967;-71
2020/12/13 12:27:05;;;;;;;;;;;8.50;99.90;;;;;;5107485;27;20375;-71
2020/12/13 12:29:32;;;;;;;;;;;8.50;99.90;;;;;;5090120;28;19923;-70
2020/12/13 12:31:59;;;;;;;;;;;8.50;99.90;;;;;;5112824;27;19924;-70
2020/12/13 12:34:25;;;;;;;;;;;8.40;99.90;;;;;;5115220;28;20010;-70
2020/12/13 12:36:52;;;;;;;;;;;8.30;99.90;;;;;;5106671;27;19970;-70
2020/12/13 12:39:18;;;;;;;;;;;8.20;99.90;;;;;;5091325;28;19920;-70
2020/12/13 12:41:45;;;;;;;;;;;8.20;99.90;;;;;;5107985;28;19924;-70
2020/12/13 12:44:11;;;;;;;;;;;8.10;99.90;;;;;;5111386;28;20001;-70
2020/12/13 12:46:38;;;;;;;;;;;8.10;99.90;;;;;;5114959;28;20403;-70
2020/12/13 12:49:05;;;;;;;;;;;8.00;99.90;;;;;;5111248;28;19963;-70
2020/12/13 12:51:32;;;;;;;;;;;7.90;99.90;;;;;;5114716;28;20353;-69
2020/12/13 12:53:58;;;;;;;;;;;7.90;99.90;;;;;;5111395;27;19924;-70
2020/12/13 12:56:27;;;;;;;;;;;7.90;99.90;;;;;;5114778;28;20011;-70
2020/12/13 12:58:58;;;;;;;;;;;7.80;99.90;;;;;;5110653;28;19928;-78
2020/12/13 13:01:31;;;;;;;;;;;7.90;99.90;;;;;;5114574;28;19950;-69
2020/12/13 13:04:00;;;;;;;;;;;7.90;99.90;;;;;;5102855;28;20026;-73
2020/12/13 13:06:34;;;;;;;;;;;7.90;99.90;;;;;;5114706;27;20391;-70
2020/12/13 13:09:09;;;;;;;;;;;7.90;99.90;;;;;;5110934;28;19924;-69
2020/12/13 13:11:37;;;;;;;;;;;7.90;99.90;;;;;;5097339;28;19931;-70
2020/12/13 13:14:04;;;;;;;;;;;7.90;99.90;;;;;;5095832;27;19927;-70
2020/12/13 13:16:30;;;;;;;;;;;7.90;99.90;;;;;;5113251;28;19930;-69
2020/12/13 13:19:00;;;;;;;;;;;7.90;99.90;;;;;;5100515;28;19958;-71
2020/12/13 13:21:33;;;;;;;;;;;8.00;99.90;;;;;;5109472;28;20022;-74
2020/12/13 13:23:59;;;;;;;;;;;8.00;99.90;;;;;;5091712;28;19924;-80
2020/12/13 13:26:26;;;;;;;;;;;7.90;99.90;;;;;;5113100;28;20388;-70
2020/12/13 13:28:53;;;;;;;;;;;7.90;99.90;;;;;;5114519;28;19984;-70
2020/12/13 13:31:22;;;;;;;;;;;7.90;99.90;;;;;;5110966;28;20017;-70
2020/12/13 13:33:49;;;;;;;;;;;8.00;99.90;;;;;;5113137;28;19928;-71
2020/12/13 13:36:15;;;;;;;;;;;8.00;99.90;;;;;;5093575;28;20284;-70
2020/12/13 13:38:43;;;;;;;;;;;8.20;99.90;;;;;;5093773;28;20001;-70
2020/12/13 13:41:12;;;;;;;;;;;8.10;99.90;;;;;;5104522;28;19970;-70
2020/12/13 13:43:41;;;;;;;;;;;8.00;99.90;;;;;;5113784;28;19931;-70
2020/12/13 13:46:28;;;;;;;;;;;7.90;99.90;;;;;;5110341;28;19970;-70
2020/12/13 13:51:39;;;;;;;;;;;7.90;99.90;;;;;;5095169;28;20296;-70
2020/12/13 13:54:08;;;;;;;;;;;7.90;99.90;;;;;;5092667;28;19966;-70
2020/12/13 13:56:41;;;;;;;;;;;7.80;99.90;;;;;;5103285;28;19973;-72
2020/12/13 13:59:07;;;;;;;;;;;7.90;99.90;;;;;;5113207;28;19976;-70
2020/12/13 14:01:35;;;;;;;;;;;7.90;99.90;;;;;;5110953;28;20295;-70
2020/12/13 14:04:01;;;;;;;;;;;7.80;99.90;;;;;;5112658;28;20391;-70
2020/12/13 14:06:42;;;;;;;;;;;7.80;99.90;;;;;;5110901;28;19972;-70
2020/12/13 14:09:09;;;;;;;;;;;7.90;99.90;;;;;;5112302;28;20388;-70
2020/12/13 14:11:35;;;;;;;;;;;8.20;99.90;;;;;;5102462;28;19928;-70
2020/12/13 14:14:03;;;;;;;;;;;8.20;99.90;;;;;;5112777;28;20428;-70
2020/12/13 14:16:29;;;;;;;;;;;8.20;99.90;;;;;;5107423;28;19970;-70
2020/12/13 14:18:55;;;;;;;;;;;8.20;99.90;;;;;;5112450;28;19924;-79
2020/12/13 14:21:22;;;;;;;;;;;8.10;99.90;;;;;;5109061;28;19924;-70
2020/12/13 14:23:48;;;;;;;;;;;8.00;99.90;;;;;;5099782;28;19981;-70
2020/12/13 14:26:15;;;;;;;;;;;8.00;99.90;;;;;;5103960;28;19924;-70
2020/12/13 14:28:42;;;;;;;;;;;7.90;99.90;;;;;;5110197;28;19924;-70
2020/12/13 14:31:08;;;;;;;;;;;7.90;99.90;;;;;;5107440;28;19928;-70
2020/12/13 14:33:35;;;;;;;;;;;7.90;99.90;;;;;;5098367;28;20304;-70
2020/12/13 14:36:01;;;;;;;;;;;7.80;99.90;;;;;;5096900;28;20373;-70